sensor_id;sensor_type;location;lat;lon;timestamp;P1;durP1;ratioP1;P2;durP2;ratioP2
16979;SDS011;42288;52.182;21.156;2023-02-01T00:01:43;14.57;;;7.87;;
16979;SDS011;42288;52.182;21.156;2023-02-01T00:04:09;11.13;;;7.07;;
16979;SDS011;42288;52.182;21.156;2023-02-01T00:06:35;10.83;;;6.93;;
16979;SDS011;42288;52.182;21.156;2023-02-01T00:09:00;12.00;;;6.83;;
16979;SDS011;42288;52.182;21.156;2023-02-01T00:11:26;9.50;;;6.13;;
16979;SDS011;42288;52.182;21.156;2023-02-01T00:13:52;9.87;;;6.20;;
16979;SDS011;42288;52.182;21.156;2023-02-01T00:16:18;9.13;;;5.60;;
16979;SDS011;42288;52.182;21.156;2023-02-01T00:18:55;9.17;;;5.27;;
16979;SDS011;42288;52.182;21.156;2023-02-01T00:21:29;8.33;;;5.17;;
16979;SDS011;42288;52.182;21.156;2023-02-01T00:23:55;10.60;;;6.03;;
16979;SDS011;42288;52.182;21.156;2023-02-01T00:26:43;7.93;;;5.30;;
16979;SDS011;42288;52.182;21.156;2023-02-01T00:29:10;11.03;;;6.73;;
16979;SDS011;42288;52.182;21.156;2023-02-01T00:31:38;11.73;;;6.53;;
16979;SDS011;42288;52.182;21.156;2023-02-01T00:34:04;10.00;;;6.03;;
16979;SDS011;42288;52.182;21.156;2023-02-01T00:36:30;7.50;;;4.93;;
16979;SDS011;42288;52.182;21.156;2023-02-01T00:38:56;10.50;;;5.97;;
16979;SDS011;42288;52.182;21.156;2023-02-01T00:41:22;15.60;;;6.33;;
16979;SDS011;42288;52.182;21.156;2023-02-01T00:43:48;9.37;;;5.47;;
16979;SDS011;42288;52.182;21.156;2023-02-01T00:46:15;8.90;;;4.40;;
16979;SDS011;42288;52.182;21.156;2023-02-01T00:48:42;9.33;;;3.93;;
16979;SDS011;42288;52.182;21.156;2023-02-01T00:51:08;6.07;;;3.87;;
16979;SDS011;42288;52.182;21.156;2023-02-01T00:53:36;5.30;;;3.43;;
16979;SDS011;42288;52.182;21.156;2023-02-01T00:56:02;5.27;;;3.40;;
16979;SDS011;42288;52.182;21.156;2023-02-01T00:58:29;8.37;;;3.50;;
16979;SDS011;42288;52.182;21.156;2023-02-01T01:03:34;7.73;;;3.47;;
16979;SDS011;42288;52.182;21.156;2023-02-01T01:06:03;8.63;;;3.63;;
16979;SDS011;42288;52.182;21.156;2023-02-01T01:08:31;8.40;;;4.10;;
16979;SDS011;42288;52.182;21.156;2023-02-01T01:10:56;7.43;;;4.07;;
16979;SDS011;42288;52.182;21.156;2023-02-01T01:13:22;10.87;;;3.37;;
16979;SDS011;42288;52.182;21.156;2023-02-01T01:15:48;8.60;;;3.43;;
16979;SDS011;42288;52.182;21.156;2023-02-01T01:18:13;11.57;;;4.03;;
16979;SDS011;42288;52.182;21.156;2023-02-01T01:20:39;12.53;;;3.50;;
16979;SDS011;42288;52.182;21.156;2023-02-01T01:23:06;10.23;;;2.77;;
16979;SDS011;42288;52.182;21.156;2023-02-01T01:25:32;9.57;;;2.73;;
16979;SDS011;42288;52.182;21.156;2023-02-01T01:28:02;8.57;;;3.07;;
16979;SDS011;42288;52.182;21.156;2023-02-01T01:30:28;11.67;;;3.30;;
16979;SDS011;42288;52.182;21.156;2023-02-01T01:32:53;12.40;;;3.00;;
16979;SDS011;42288;52.182;21.156;2023-02-01T01:35:19;9.93;;;2.63;;
16979;SDS011;42288;52.182;21.156;2023-02-01T01:37:45;14.33;;;3.33;;
16979;SDS011;42288;52.182;21.156;2023-02-01T01:40:10;10.53;;;2.93;;
16979;SDS011;42288;52.182;21.156;2023-02-01T01:42:37;12.40;;;2.70;;
16979;SDS011;42288;52.182;21.156;2023-02-01T01:48:02;8.63;;;2.33;;
16979;SDS011;42288;52.182;21.156;2023-02-01T01:50:38;8.67;;;2.80;;
16979;SDS011;42288;52.182;21.156;2023-02-01T01:53:07;7.80;;;1.93;;
16979;SDS011;42288;52.182;21.156;2023-02-01T01:55:35;11.93;;;2.40;;
16979;SDS011;42288;52.182;21.156;2023-02-01T01:58:05;13.10;;;3.70;;
16979;SDS011;42288;52.182;21.156;2023-02-01T02:00:35;13.03;;;2.70;;
16979;SDS011;42288;52.182;21.156;2023-02-01T02:03:03;11.97;;;3.50;;
16979;SDS011;42288;52.182;21.156;2023-02-01T02:05:44;10.30;;;3.00;;
16979;SDS011;42288;52.182;21.156;2023-02-01T02:08:12;11.27;;;3.10;;
16979;SDS011;42288;52.182;21.156;2023-02-01T02:10:38;13.00;;;3.30;;
16979;SDS011;42288;52.182;21.156;2023-02-01T02:13:22;10.57;;;2.73;;
16979;SDS011;42288;52.182;21.156;2023-02-01T02:16:02;10.57;;;2.57;;
16979;SDS011;42288;52.182;21.156;2023-02-01T02:27:05;8.83;;;2.70;;
16979;SDS011;42288;52.182;21.156;2023-02-01T02:38:05;12.60;;;3.60;;
16979;SDS011;42288;52.182;21.156;2023-02-01T02:44:33;6.20;;;2.60;;
16979;SDS011;42288;52.182;21.156;2023-02-01T02:47:36;14.27;;;2.63;;
16979;SDS011;42288;52.182;21.156;2023-02-01T02:53:25;10.93;;;3.30;;
16979;SDS011;42288;52.182;21.156;2023-02-01T02:56:15;14.50;;;2.93;;
16979;SDS011;42288;52.182;21.156;2023-02-01T02:59:02;14.40;;;2.53;;
16979;SDS011;42288;52.182;21.156;2023-02-01T03:01:48;17.13;;;3.13;;
16979;SDS011;42288;52.182;21.156;2023-02-01T03:04:32;7.93;;;2.57;;
16979;SDS011;42288;52.182;21.156;2023-02-01T03:07:09;13.97;;;3.80;;
16979;SDS011;42288;52.182;21.156;2023-02-01T03:09:37;12.57;;;2.63;;
16979;SDS011;42288;52.182;21.156;2023-02-01T03:12:08;14.77;;;2.87;;
16979;SDS011;42288;52.182;21.156;2023-02-01T03:14:57;11.17;;;2.50;;
16979;SDS011;42288;52.182;21.156;2023-02-01T03:17:34;13.33;;;2.67;;
16979;SDS011;42288;52.182;21.156;2023-02-01T03:20:03;10.67;;;2.83;;
16979;SDS011;42288;52.182;21.156;2023-02-01T03:22:31;13.90;;;2.70;;
16979;SDS011;42288;52.182;21.156;2023-02-01T03:25:21;17.43;;;3.13;;
16979;SDS011;42288;52.182;21.156;2023-02-01T03:27:53;12.30;;;2.33;;
16979;SDS011;42288;52.182;21.156;2023-02-01T03:33:04;8.73;;;2.27;;
16979;SDS011;42288;52.182;21.156;2023-02-01T03:38:09;10.30;;;2.47;;
16979;SDS011;42288;52.182;21.156;2023-02-01T03:40:40;12.43;;;2.53;;
16979;SDS011;42288;52.182;21.156;2023-02-01T03:43:08;12.37;;;3.00;;
16979;SDS011;42288;52.182;21.156;2023-02-01T03:45:38;9.40;;;2.90;;
16979;SDS011;42288;52.182;21.156;2023-02-01T03:48:08;12.50;;;2.77;;
16979;SDS011;42288;52.182;21.156;2023-02-01T03:50:36;15.40;;;3.60;;
16979;SDS011;42288;52.182;21.156;2023-02-01T03:53:09;16.23;;;2.87;;
16979;SDS011;42288;52.182;21.156;2023-02-01T03:55:39;10.07;;;3.00;;
16979;SDS011;42288;52.182;21.156;2023-02-01T03:58:07;12.40;;;3.23;;
16979;SDS011;42288;52.182;21.156;2023-02-01T04:00:37;10.63;;;2.70;;
16979;SDS011;42288;52.182;21.156;2023-02-01T04:03:04;10.20;;;3.00;;
16979;SDS011;42288;52.182;21.156;2023-02-01T04:05:31;10.30;;;2.70;;
16979;SDS011;42288;52.182;21.156;2023-02-01T04:07:57;16.10;;;3.63;;
16979;SDS011;42288;52.182;21.156;2023-02-01T04:10:23;15.60;;;3.20;;
16979;SDS011;42288;52.182;21.156;2023-02-01T04:12:49;9.07;;;2.97;;
16979;SDS011;42288;52.182;21.156;2023-02-01T04:15:15;14.20;;;3.23;;
16979;SDS011;42288;52.182;21.156;2023-02-01T04:17:40;10.13;;;2.53;;
16979;SDS011;42288;52.182;21.156;2023-02-01T04:20:06;16.03;;;3.03;;
16979;SDS011;42288;52.182;21.156;2023-02-01T04:22:31;14.37;;;3.30;;
16979;SDS011;42288;52.182;21.156;2023-02-01T04:24:57;14.27;;;2.57;;
16979;SDS011;42288;52.182;21.156;2023-02-01T04:27:23;13.20;;;3.10;;
16979;SDS011;42288;52.182;21.156;2023-02-01T04:29:48;15.00;;;3.00;;
16979;SDS011;42288;52.182;21.156;2023-02-01T04:32:17;9.17;;;2.20;;
16979;SDS011;42288;52.182;21.156;2023-02-01T04:34:44;11.60;;;3.00;;
16979;SDS011;42288;52.182;21.156;2023-02-01T04:37:10;11.77;;;2.97;;
16979;SDS011;42288;52.182;21.156;2023-02-01T04:39:35;13.23;;;2.83;;
16979;SDS011;42288;52.182;21.156;2023-02-01T04:42:01;13.33;;;2.73;;
16979;SDS011;42288;52.182;21.156;2023-02-01T04:44:27;13.53;;;2.57;;
16979;SDS011;42288;52.182;21.156;2023-02-01T04:46:52;11.40;;;2.70;;
16979;SDS011;42288;52.182;21.156;2023-02-01T04:49:18;13.47;;;2.97;;
16979;SDS011;42288;52.182;21.156;2023-02-01T04:51:45;14.23;;;2.63;;
16979;SDS011;42288;52.182;21.156;2023-02-01T04:54:10;11.93;;;3.00;;
16979;SDS011;42288;52.182;21.156;2023-02-01T04:56:39;14.43;;;3.40;;
16979;SDS011;42288;52.182;21.156;2023-02-01T04:59:05;11.10;;;2.73;;
16979;SDS011;42288;52.182;21.156;2023-02-01T05:01:31;12.27;;;2.57;;
16979;SDS011;42288;52.182;21.156;2023-02-01T05:03:57;14.97;;;3.00;;
16979;SDS011;42288;52.182;21.156;2023-02-01T05:06:22;11.03;;;2.70;;
16979;SDS011;42288;52.182;21.156;2023-02-01T05:08:48;19.87;;;3.13;;
16979;SDS011;42288;52.182;21.156;2023-02-01T05:11:14;12.57;;;3.23;;
16979;SDS011;42288;52.182;21.156;2023-02-01T05:13:59;12.57;;;2.60;;
16979;SDS011;42288;52.182;21.156;2023-02-01T05:16:25;19.33;;;3.43;;
16979;SDS011;42288;52.182;21.156;2023-02-01T05:18:52;16.27;;;2.73;;
16979;SDS011;42288;52.182;21.156;2023-02-01T05:21:18;18.23;;;2.30;;
16979;SDS011;42288;52.182;21.156;2023-02-01T05:23:43;12.83;;;3.17;;
16979;SDS011;42288;52.182;21.156;2023-02-01T05:26:27;12.80;;;2.30;;
16979;SDS011;42288;52.182;21.156;2023-02-01T05:28:53;15.73;;;2.90;;
16979;SDS011;42288;52.182;21.156;2023-02-01T05:31:19;14.73;;;3.00;;
16979;SDS011;42288;52.182;21.156;2023-02-01T05:33:44;13.47;;;2.40;;
16979;SDS011;42288;52.182;21.156;2023-02-01T05:36:10;15.97;;;2.63;;
16979;SDS011;42288;52.182;21.156;2023-02-01T05:38:36;12.43;;;2.47;;
16979;SDS011;42288;52.182;21.156;2023-02-01T05:41:01;15.70;;;2.93;;
16979;SDS011;42288;52.182;21.156;2023-02-01T05:43:27;15.20;;;2.83;;
16979;SDS011;42288;52.182;21.156;2023-02-01T05:45:52;16.50;;;2.50;;
16979;SDS011;42288;52.182;21.156;2023-02-01T05:48:18;34.07;;;10.37;;
16979;SDS011;42288;52.182;21.156;2023-02-01T05:50:44;17.37;;;3.37;;
16979;SDS011;42288;52.182;21.156;2023-02-01T05:53:10;17.20;;;2.90;;
16979;SDS011;42288;52.182;21.156;2023-02-01T05:55:36;16.53;;;2.80;;
16979;SDS011;42288;52.182;21.156;2023-02-01T05:58:02;19.80;;;2.93;;
16979;SDS011;42288;52.182;21.156;2023-02-01T06:00:29;12.63;;;2.80;;
16979;SDS011;42288;52.182;21.156;2023-02-01T06:02:54;12.97;;;2.47;;
16979;SDS011;42288;52.182;21.156;2023-02-01T06:05:20;12.17;;;3.03;;
16979;SDS011;42288;52.182;21.156;2023-02-01T06:07:46;10.13;;;2.33;;
16979;SDS011;42288;52.182;21.156;2023-02-01T06:10:11;14.10;;;3.07;;
16979;SDS011;42288;52.182;21.156;2023-02-01T06:12:38;13.07;;;2.83;;
16979;SDS011;42288;52.182;21.156;2023-02-01T06:15:04;13.27;;;2.83;;
16979;SDS011;42288;52.182;21.156;2023-02-01T06:17:30;11.63;;;2.77;;
16979;SDS011;42288;52.182;21.156;2023-02-01T06:19:56;13.80;;;2.70;;
16979;SDS011;42288;52.182;21.156;2023-02-01T06:22:21;12.77;;;3.03;;
16979;SDS011;42288;52.182;21.156;2023-02-01T06:24:47;16.53;;;3.03;;
16979;SDS011;42288;52.182;21.156;2023-02-01T06:27:13;11.37;;;3.20;;
16979;SDS011;42288;52.182;21.156;2023-02-01T06:29:39;20.30;;;3.30;;
16979;SDS011;42288;52.182;21.156;2023-02-01T06:32:05;15.77;;;2.80;;
16979;SDS011;42288;52.182;21.156;2023-02-01T06:34:30;11.97;;;2.63;;
16979;SDS011;42288;52.182;21.156;2023-02-01T06:36:56;9.80;;;2.50;;
16979;SDS011;42288;52.182;21.156;2023-02-01T06:39:21;10.70;;;2.40;;
16979;SDS011;42288;52.182;21.156;2023-02-01T06:41:47;13.27;;;3.03;;
16979;SDS011;42288;52.182;21.156;2023-02-01T06:44:13;13.17;;;3.10;;
16979;SDS011;42288;52.182;21.156;2023-02-01T06:46:40;8.70;;;2.93;;
16979;SDS011;42288;52.182;21.156;2023-02-01T06:49:05;15.03;;;2.80;;
16979;SDS011;42288;52.182;21.156;2023-02-01T06:51:31;17.90;;;2.80;;
16979;SDS011;42288;52.182;21.156;2023-02-01T06:53:57;12.30;;;2.80;;
16979;SDS011;42288;52.182;21.156;2023-02-01T06:56:23;15.60;;;2.93;;
16979;SDS011;42288;52.182;21.156;2023-02-01T06:58:49;15.07;;;2.43;;
16979;SDS011;42288;52.182;21.156;2023-02-01T07:01:15;12.60;;;3.00;;
16979;SDS011;42288;52.182;21.156;2023-02-01T07:03:41;13.50;;;2.40;;
16979;SDS011;42288;52.182;21.156;2023-02-01T07:06:06;19.13;;;3.23;;
16979;SDS011;42288;52.182;21.156;2023-02-01T07:08:34;14.20;;;2.73;;
16979;SDS011;42288;52.182;21.156;2023-02-01T07:11:05;15.90;;;2.97;;
16979;SDS011;42288;52.182;21.156;2023-02-01T07:13:33;18.63;;;2.50;;
16979;SDS011;42288;52.182;21.156;2023-02-01T07:16:00;16.93;;;2.67;;
16979;SDS011;42288;52.182;21.156;2023-02-01T07:18:28;15.50;;;2.87;;
16979;SDS011;42288;52.182;21.156;2023-02-01T07:20:54;15.27;;;2.90;;
16979;SDS011;42288;52.182;21.156;2023-02-01T07:23:20;8.30;;;2.23;;
16979;SDS011;42288;52.182;21.156;2023-02-01T07:25:46;15.20;;;2.60;;
16979;SDS011;42288;52.182;21.156;2023-02-01T07:28:12;17.67;;;2.67;;
16979;SDS011;42288;52.182;21.156;2023-02-01T07:30:37;13.53;;;2.70;;
16979;SDS011;42288;52.182;21.156;2023-02-01T07:33:03;15.80;;;3.10;;
16979;SDS011;42288;52.182;21.156;2023-02-01T07:35:28;8.40;;;2.63;;
16979;SDS011;42288;52.182;21.156;2023-02-01T07:37:54;15.40;;;2.73;;
16979;SDS011;42288;52.182;21.156;2023-02-01T07:40:22;14.27;;;3.50;;
16979;SDS011;42288;52.182;21.156;2023-02-01T07:42:53;13.13;;;2.60;;
16979;SDS011;42288;52.182;21.156;2023-02-01T07:45:22;11.87;;;3.00;;
16979;SDS011;42288;52.182;21.156;2023-02-01T07:47:48;21.70;;;4.50;;
16979;SDS011;42288;52.182;21.156;2023-02-01T07:50:16;13.20;;;2.90;;
16979;SDS011;42288;52.182;21.156;2023-02-01T07:52:41;18.83;;;4.40;;
16979;SDS011;42288;52.182;21.156;2023-02-01T07:55:07;21.47;;;6.30;;
16979;SDS011;42288;52.182;21.156;2023-02-01T07:57:33;13.33;;;3.33;;
16979;SDS011;42288;52.182;21.156;2023-02-01T07:59:58;16.70;;;4.93;;
16979;SDS011;42288;52.182;21.156;2023-02-01T08:02:43;15.87;;;3.33;;
16979;SDS011;42288;52.182;21.156;2023-02-01T08:05:08;14.57;;;3.20;;
16979;SDS011;42288;52.182;21.156;2023-02-01T08:07:34;14.57;;;3.90;;
16979;SDS011;42288;52.182;21.156;2023-02-01T08:10:00;14.93;;;3.30;;
16979;SDS011;42288;52.182;21.156;2023-02-01T08:12:25;18.80;;;5.17;;
16979;SDS011;42288;52.182;21.156;2023-02-01T08:14:52;14.17;;;3.60;;
16979;SDS011;42288;52.182;21.156;2023-02-01T08:17:18;14.50;;;6.10;;
16979;SDS011;42288;52.182;21.156;2023-02-01T08:19:44;13.10;;;3.00;;
16979;SDS011;42288;52.182;21.156;2023-02-01T08:22:10;16.17;;;3.93;;
16979;SDS011;42288;52.182;21.156;2023-02-01T08:24:36;23.30;;;3.70;;
16979;SDS011;42288;52.182;21.156;2023-02-01T08:27:04;14.73;;;3.63;;
16979;SDS011;42288;52.182;21.156;2023-02-01T08:29:30;15.90;;;3.30;;
16979;SDS011;42288;52.182;21.156;2023-02-01T08:31:56;16.93;;;3.40;;
16979;SDS011;42288;52.182;21.156;2023-02-01T08:34:21;15.00;;;3.17;;
16979;SDS011;42288;52.182;21.156;2023-02-01T08:36:47;14.40;;;3.17;;
16979;SDS011;42288;52.182;21.156;2023-02-01T08:39:13;14.80;;;3.17;;
16979;SDS011;42288;52.182;21.156;2023-02-01T08:41:38;18.33;;;2.93;;
16979;SDS011;42288;52.182;21.156;2023-02-01T08:44:04;19.53;;;3.03;;
16979;SDS011;42288;52.182;21.156;2023-02-01T08:46:30;11.33;;;2.80;;
16979;SDS011;42288;52.182;21.156;2023-02-01T08:48:56;12.70;;;3.20;;
16979;SDS011;42288;52.182;21.156;2023-02-01T08:51:21;11.47;;;3.13;;
16979;SDS011;42288;52.182;21.156;2023-02-01T08:53:48;15.87;;;3.10;;
16979;SDS011;42288;52.182;21.156;2023-02-01T08:56:15;17.43;;;3.57;;
16979;SDS011;42288;52.182;21.156;2023-02-01T08:58:42;18.60;;;2.97;;
16979;SDS011;42288;52.182;21.156;2023-02-01T09:01:11;17.00;;;3.20;;
16979;SDS011;42288;52.182;21.156;2023-02-01T09:03:39;13.23;;;3.37;;
16979;SDS011;42288;52.182;21.156;2023-02-01T09:06:06;14.50;;;3.23;;
16979;SDS011;42288;52.182;21.156;2023-02-01T09:08:34;19.80;;;3.30;;
16979;SDS011;42288;52.182;21.156;2023-02-01T09:11:01;20.23;;;2.87;;
16979;SDS011;42288;52.182;21.156;2023-02-01T09:13:27;13.13;;;3.50;;
16979;SDS011;42288;52.182;21.156;2023-02-01T09:15:53;12.40;;;3.47;;
16979;SDS011;42288;52.182;21.156;2023-02-01T09:18:19;11.53;;;2.70;;
16979;SDS011;42288;52.182;21.156;2023-02-01T09:20:44;14.87;;;3.00;;
16979;SDS011;42288;52.182;21.156;2023-02-01T09:23:10;15.50;;;2.97;;
16979;SDS011;42288;52.182;21.156;2023-02-01T09:25:39;15.00;;;3.33;;
16979;SDS011;42288;52.182;21.156;2023-02-01T09:28:05;14.80;;;3.07;;
16979;SDS011;42288;52.182;21.156;2023-02-01T09:30:31;16.77;;;2.80;;
16979;SDS011;42288;52.182;21.156;2023-02-01T09:32:58;10.87;;;2.90;;
16979;SDS011;42288;52.182;21.156;2023-02-01T09:35:24;10.53;;;2.70;;
16979;SDS011;42288;52.182;21.156;2023-02-01T09:37:49;18.83;;;3.50;;
16979;SDS011;42288;52.182;21.156;2023-02-01T09:40:17;12.10;;;3.33;;
16979;SDS011;42288;52.182;21.156;2023-02-01T09:48:11;12.70;;;3.23;;
16979;SDS011;42288;52.182;21.156;2023-02-01T09:50:56;15.40;;;3.30;;
16979;SDS011;42288;52.182;21.156;2023-02-01T09:53:37;15.30;;;3.30;;
16979;SDS011;42288;52.182;21.156;2023-02-01T09:56:12;14.70;;;3.20;;
16979;SDS011;42288;52.182;21.156;2023-02-01T09:58:44;12.40;;;3.67;;
16979;SDS011;42288;52.182;21.156;2023-02-01T10:01:21;13.37;;;3.67;;
16979;SDS011;42288;52.182;21.156;2023-02-01T10:03:48;15.10;;;3.27;;
16979;SDS011;42288;52.182;21.156;2023-02-01T10:06:23;10.47;;;2.90;;
16979;SDS011;42288;52.182;21.156;2023-02-01T10:16:56;12.67;;;3.20;;
16979;SDS011;42288;52.182;21.156;2023-02-01T10:22:46;19.20;;;3.53;;
16979;SDS011;42288;52.182;21.156;2023-02-01T10:27:49;12.63;;;2.80;;
16979;SDS011;42288;52.182;21.156;2023-02-01T10:30:19;15.03;;;3.50;;
16979;SDS011;42288;52.182;21.156;2023-02-01T10:32:48;15.13;;;3.30;;
16979;SDS011;42288;52.182;21.156;2023-02-01T10:35:22;17.30;;;3.63;;
16979;SDS011;42288;52.182;21.156;2023-02-01T10:37:52;15.23;;;3.23;;
16979;SDS011;42288;52.182;21.156;2023-02-01T10:42:52;14.23;;;3.40;;
16979;SDS011;42288;52.182;21.156;2023-02-01T10:45:22;19.07;;;2.77;;
16979;SDS011;42288;52.182;21.156;2023-02-01T10:47:51;12.70;;;3.10;;
16979;SDS011;42288;52.182;21.156;2023-02-01T10:53:09;12.47;;;3.10;;
16979;SDS011;42288;52.182;21.156;2023-02-01T10:55:38;14.23;;;3.17;;
16979;SDS011;42288;52.182;21.156;2023-02-01T10:58:18;15.43;;;3.50;;
16979;SDS011;42288;52.182;21.156;2023-02-01T11:00:47;17.40;;;3.37;;
16979;SDS011;42288;52.182;21.156;2023-02-01T11:03:32;12.23;;;2.97;;
16979;SDS011;42288;52.182;21.156;2023-02-01T11:06:01;13.67;;;3.27;;
16979;SDS011;42288;52.182;21.156;2023-02-01T11:08:34;10.03;;;3.33;;
16979;SDS011;42288;52.182;21.156;2023-02-01T11:11:08;17.23;;;3.57;;
16979;SDS011;42288;52.182;21.156;2023-02-01T11:13:37;16.77;;;3.50;;
16979;SDS011;42288;52.182;21.156;2023-02-01T11:16:04;14.90;;;3.70;;
16979;SDS011;42288;52.182;21.156;2023-02-01T11:18:31;23.47;;;4.60;;
16979;SDS011;42288;52.182;21.156;2023-02-01T11:21:00;15.03;;;3.67;;
16979;SDS011;42288;52.182;21.156;2023-02-01T11:23:27;18.17;;;3.73;;
16979;SDS011;42288;52.182;21.156;2023-02-01T11:28:25;17.03;;;4.27;;
16979;SDS011;42288;52.182;21.156;2023-02-01T11:30:59;16.70;;;3.33;;
16979;SDS011;42288;52.182;21.156;2023-02-01T11:33:29;14.23;;;3.53;;
16979;SDS011;42288;52.182;21.156;2023-02-01T11:36:00;7.83;;;3.30;;
16979;SDS011;42288;52.182;21.156;2023-02-01T11:38:33;12.77;;;3.67;;
16979;SDS011;42288;52.182;21.156;2023-02-01T11:44:15;13.63;;;3.70;;
16979;SDS011;42288;52.182;21.156;2023-02-01T11:46:46;10.47;;;3.03;;
16979;SDS011;42288;52.182;21.156;2023-02-01T11:49:30;11.33;;;3.73;;
16979;SDS011;42288;52.182;21.156;2023-02-01T11:54:43;15.67;;;4.50;;
16979;SDS011;42288;52.182;21.156;2023-02-01T12:02:50;16.80;;;3.70;;
16979;SDS011;42288;52.182;21.156;2023-02-01T12:11:03;16.57;;;4.17;;
16979;SDS011;42288;52.182;21.156;2023-02-01T12:19:40;13.13;;;3.97;;
16979;SDS011;42288;52.182;21.156;2023-02-01T12:35:51;24.23;;;6.40;;
16979;SDS011;42288;52.182;21.156;2023-02-01T12:41:15;14.57;;;3.93;;
16979;SDS011;42288;52.182;21.156;2023-02-01T12:44:03;21.50;;;4.73;;
16979;SDS011;42288;52.182;21.156;2023-02-01T12:46:47;22.43;;;5.07;;
16979;SDS011;42288;52.182;21.156;2023-02-01T12:52:20;16.60;;;4.87;;
16979;SDS011;42288;52.182;21.156;2023-02-01T12:55:00;21.97;;;4.80;;
16979;SDS011;42288;52.182;21.156;2023-02-01T12:57:32;20.27;;;4.37;;
16979;SDS011;42288;52.182;21.156;2023-02-01T13:05:24;18.27;;;4.43;;
16979;SDS011;42288;52.182;21.156;2023-02-01T13:13:10;17.80;;;5.17;;
16979;SDS011;42288;52.182;21.156;2023-02-01T13:16:03;22.10;;;5.70;;
16979;SDS011;42288;52.182;21.156;2023-02-01T13:18:45;24.37;;;5.43;;
16979;SDS011;42288;52.182;21.156;2023-02-01T13:21:18;16.20;;;4.93;;
16979;SDS011;42288;52.182;21.156;2023-02-01T13:23:53;31.53;;;6.90;;
16979;SDS011;42288;52.182;21.156;2023-02-01T13:26:19;22.03;;;5.93;;
16979;SDS011;42288;52.182;21.156;2023-02-01T13:37:15;20.03;;;6.53;;
16979;SDS011;42288;52.182;21.156;2023-02-01T13:42:54;32.30;;;5.90;;
16979;SDS011;42288;52.182;21.156;2023-02-01T13:45:29;23.30;;;6.47;;
16979;SDS011;42288;52.182;21.156;2023-02-01T13:47:58;19.73;;;4.07;;
16979;SDS011;42288;52.182;21.156;2023-02-01T13:53:04;18.00;;;4.63;;
16979;SDS011;42288;52.182;21.156;2023-02-01T13:58:30;15.37;;;5.40;;
16979;SDS011;42288;52.182;21.156;2023-02-01T14:01:45;20.07;;;5.00;;
16979;SDS011;42288;52.182;21.156;2023-02-01T14:16:41;17.07;;;4.17;;
16979;SDS011;42288;52.182;21.156;2023-02-01T14:19:31;17.60;;;5.13;;
16979;SDS011;42288;52.182;21.156;2023-02-01T14:24:49;17.97;;;4.73;;
16979;SDS011;42288;52.182;21.156;2023-02-01T14:27:23;27.30;;;6.93;;
16979;SDS011;42288;52.182;21.156;2023-02-01T14:29:59;19.07;;;6.37;;
16979;SDS011;42288;52.182;21.156;2023-02-01T14:32:38;21.43;;;6.07;;
16979;SDS011;42288;52.182;21.156;2023-02-01T14:35:07;22.33;;;5.80;;
16979;SDS011;42288;52.182;21.156;2023-02-01T14:37:42;18.80;;;5.90;;
16979;SDS011;42288;52.182;21.156;2023-02-01T15:01:04;12.73;;;4.03;;
16979;SDS011;42288;52.182;21.156;2023-02-01T15:14:46;10.77;;;3.67;;
16979;SDS011;42288;52.182;21.156;2023-02-01T15:17:28;12.37;;;4.20;;
16979;SDS011;42288;52.182;21.156;2023-02-01T15:20:20;11.57;;;3.90;;
16979;SDS011;42288;52.182;21.156;2023-02-01T15:22:56;9.63;;;3.57;;
16979;SDS011;42288;52.182;21.156;2023-02-01T15:25:25;7.20;;;3.37;;
16979;SDS011;42288;52.182;21.156;2023-02-01T15:28:00;10.53;;;4.40;;
16979;SDS011;42288;52.182;21.156;2023-02-01T15:30:30;10.67;;;4.03;;
16979;SDS011;42288;52.182;21.156;2023-02-01T15:33:05;10.77;;;4.70;;
16979;SDS011;42288;52.182;21.156;2023-02-01T15:35:38;13.10;;;4.30;;
16979;SDS011;42288;52.182;21.156;2023-02-01T15:40:55;9.50;;;4.57;;
16979;SDS011;42288;52.182;21.156;2023-02-01T15:43:21;8.90;;;3.27;;
16979;SDS011;42288;52.182;21.156;2023-02-01T15:45:47;9.80;;;3.13;;
16979;SDS011;42288;52.182;21.156;2023-02-01T15:48:19;8.97;;;3.80;;
16979;SDS011;42288;52.182;21.156;2023-02-01T15:50:47;11.10;;;4.17;;
16979;SDS011;42288;52.182;21.156;2023-02-01T15:53:15;13.57;;;4.50;;
16979;SDS011;42288;52.182;21.156;2023-02-01T15:55:47;24.60;;;7.70;;
16979;SDS011;42288;52.182;21.156;2023-02-01T15:58:20;15.20;;;6.50;;
16979;SDS011;42288;52.182;21.156;2023-02-01T16:00:51;22.37;;;7.10;;
16979;SDS011;42288;52.182;21.156;2023-02-01T16:03:33;23.17;;;7.03;;
16979;SDS011;42288;52.182;21.156;2023-02-01T16:06:28;15.47;;;5.53;;
16979;SDS011;42288;52.182;21.156;2023-02-01T16:08:55;22.07;;;8.03;;
16979;SDS011;42288;52.182;21.156;2023-02-01T16:11:31;13.20;;;4.43;;
16979;SDS011;42288;52.182;21.156;2023-02-01T16:14:04;19.60;;;7.03;;
16979;SDS011;42288;52.182;21.156;2023-02-01T16:16:30;14.23;;;5.93;;
16979;SDS011;42288;52.182;21.156;2023-02-01T16:18:55;15.50;;;6.60;;
16979;SDS011;42288;52.182;21.156;2023-02-01T16:21:21;18.20;;;6.63;;
16979;SDS011;42288;52.182;21.156;2023-02-01T16:23:48;16.87;;;7.33;;
16979;SDS011;42288;52.182;21.156;2023-02-01T16:26:18;16.60;;;7.30;;
16979;SDS011;42288;52.182;21.156;2023-02-01T16:28:44;28.20;;;9.73;;
16979;SDS011;42288;52.182;21.156;2023-02-01T16:31:13;29.03;;;9.93;;
16979;SDS011;42288;52.182;21.156;2023-02-01T16:33:53;20.57;;;7.27;;
16979;SDS011;42288;52.182;21.156;2023-02-01T16:36:19;12.97;;;6.50;;
16979;SDS011;42288;52.182;21.156;2023-02-01T16:38:45;18.67;;;7.27;;
16979;SDS011;42288;52.182;21.156;2023-02-01T16:41:13;24.30;;;9.23;;
16979;SDS011;42288;52.182;21.156;2023-02-01T16:43:39;21.83;;;7.80;;
16979;SDS011;42288;52.182;21.156;2023-02-01T16:46:05;24.33;;;9.10;;
16979;SDS011;42288;52.182;21.156;2023-02-01T16:48:36;18.43;;;8.53;;
16979;SDS011;42288;52.182;21.156;2023-02-01T16:51:14;25.77;;;8.97;;
16979;SDS011;42288;52.182;21.156;2023-02-01T16:53:42;18.93;;;7.50;;
16979;SDS011;42288;52.182;21.156;2023-02-01T16:56:18;16.93;;;5.60;;
16979;SDS011;42288;52.182;21.156;2023-02-01T16:58:45;12.50;;;5.50;;
16979;SDS011;42288;52.182;21.156;2023-02-01T17:01:12;13.33;;;5.73;;
16979;SDS011;42288;52.182;21.156;2023-02-01T17:03:39;17.97;;;6.53;;
16979;SDS011;42288;52.182;21.156;2023-02-01T17:06:05;13.40;;;5.40;;
16979;SDS011;42288;52.182;21.156;2023-02-01T17:08:35;15.33;;;5.73;;
16979;SDS011;42288;52.182;21.156;2023-02-01T17:11:04;16.13;;;5.90;;
16979;SDS011;42288;52.182;21.156;2023-02-01T17:13:30;14.00;;;5.90;;
16979;SDS011;42288;52.182;21.156;2023-02-01T17:16:06;14.47;;;5.67;;
16979;SDS011;42288;52.182;21.156;2023-02-01T17:18:40;14.67;;;6.97;;
16979;SDS011;42288;52.182;21.156;2023-02-01T17:21:06;13.20;;;6.20;;
16979;SDS011;42288;52.182;21.156;2023-02-01T17:23:33;14.90;;;5.80;;
16979;SDS011;42288;52.182;21.156;2023-02-01T17:25:59;15.90;;;5.43;;
16979;SDS011;42288;52.182;21.156;2023-02-01T17:28:25;15.97;;;5.27;;
16979;SDS011;42288;52.182;21.156;2023-02-01T17:30:50;16.63;;;5.70;;
16979;SDS011;42288;52.182;21.156;2023-02-01T17:35:59;15.33;;;5.97;;
16979;SDS011;42288;52.182;21.156;2023-02-01T17:38:25;14.00;;;5.57;;
16979;SDS011;42288;52.182;21.156;2023-02-01T17:40:51;11.73;;;5.43;;
16979;SDS011;42288;52.182;21.156;2023-02-01T17:43:26;16.17;;;5.77;;